San Luis, CO (81152)

9:19 PM MDT on August 27, 2016 (GMT -0600)
Rio Grand Gorge | | Change Station

Elev 7513 ft 37.00 °N, 105.71 °W | Updated 2 seconds ago

Scattered Clouds
Scattered Clouds
59.9 °F
Feels Like 59.9 °F
N
9.6
Wind Variable Wind from NNW
Gusts 12.3 mph

Today
High -- | Low -- °F
--% Chance of Precip.
Yesterday
High -- | Low -- °F
Precip. -- in
Pressure 30.13 in
Visibility 10.0 miles
Clouds Scattered Clouds 11000 ft
Dew Point 45 °F
Humidity 58%
Rainfall 0.00 in
Snow Depth Not available.
6:29 AM 7:37 PM
Waning Crescent, 19% visible
METAR KALS 280252Z AUTO 29010KT 10SM SCT110 11/07 A3032 RMK AO2 SLP203 T01110072 51025
Pressure 30.13 in
Visibility 10.0 miles
Clouds Scattered Clouds 11000 ft
Dew Point 45 °F
Humidity 58%
Rainfall 0.00 in
Snow Depth Not available.
6:29 AM 7:37 PM
Waning Crescent, 19% visible
METAR KALS 280252Z AUTO 29010KT 10SM SCT110 11/07 A3032 RMK AO2 SLP203 T01110072 51025

10-Day Weather Forecast

Almanac

Astronomy

Aug. 27, 2016 Rise Set
Actual Time
Civil Twilight
Nautical Twilight
Astronomical Twilight
Moon
Length of Visible Light
Length of Day
Tomorrow will be .
, % of the Moon is Illuminated

Today's Extremes

State Highs State Lows

Community

WunderPhotos

Upload Photos

1,935,512 photos uploaded!

WunderBlog® & News

Nearby

Air Quality

  Air Quality AQ Index Pollutant
Not available.

Snow Depth

Station Depth Elevation

Earthquake Activity

City Distance Mag. Time & Date
Minimum magnitude displayed is 2.5.

Coastal Water Temperatures

Place Temperature

Stations

Nearby Weather Stations

Station Location Temp. Windchill Dew Point Humidity Wind Precip. Elev Updated Type
                   

Watches & Warnings

There are currently no watches in effect.